sensor_id;sensor_type;location;lat;lon;timestamp;pressure;altitude;pressure_sealevel;temperature;humidity
29385;BME280;16367;48.736;9.218;2023-04-24T00:01:10;-23494.66;;;10.32;100.00
29385;BME280;16367;48.736;9.218;2023-04-24T00:03:14;-23490.69;;;10.20;100.00
29385;BME280;16367;48.736;9.218;2023-04-24T00:05:17;-23490.22;;;10.18;100.00
29385;BME280;16367;48.736;9.218;2023-04-24T00:07:20;-23491.47;;;10.22;100.00
29385;BME280;16367;48.736;9.218;2023-04-24T00:09:24;-23487.19;;;10.09;100.00
29385;BME280;16367;48.736;9.218;2023-04-24T00:11:27;-23486.56;;;10.07;100.00
29385;BME280;16367;48.736;9.218;2023-04-24T00:13:30;-23487.19;;;10.09;100.00
29385;BME280;16367;48.736;9.218;2023-04-24T00:15:33;-23484.66;;;10.01;100.00
29385;BME280;16367;48.736;9.218;2023-04-24T00:17:35;-23484.66;;;10.01;100.00
29385;BME280;16367;48.736;9.218;2023-04-24T00:19:38;-23486.72;;;10.07;100.00
29385;BME280;16367;48.736;9.218;2023-04-24T00:21:42;-23485.13;;;10.02;100.00
29385;BME280;16367;48.736;9.218;2023-04-24T00:23:44;-23489.72;;;10.17;100.00
29385;BME280;16367;48.736;9.218;2023-04-24T00:25:49;-23491.00;;;10.21;100.00
29385;BME280;16367;48.736;9.218;2023-04-24T00:27:51;-23490.03;;;10.18;100.00
29385;BME280;16367;48.736;9.218;2023-04-24T00:29:54;-23488.78;;;10.14;100.00
29385;BME280;16367;48.736;9.218;2023-04-24T00:31:57;-23488.63;;;10.13;100.00
29385;BME280;16367;48.736;9.218;2023-04-24T00:34:00;-23490.03;;;10.18;100.00
29385;BME280;16367;48.736;9.218;2023-04-24T00:36:03;-23489.41;;;10.16;100.00
29385;BME280;16367;48.736;9.218;2023-04-24T00:38:08;-23492.44;;;10.25;100.00
29385;BME280;16367;48.736;9.218;2023-04-24T00:40:11;-23493.06;;;10.27;100.00
29385;BME280;16367;48.736;9.218;2023-04-24T00:42:15;-23495.75;;;10.36;100.00
29385;BME280;16367;48.736;9.218;2023-04-24T00:44:18;-23497.03;;;10.40;100.00
29385;BME280;16367;48.736;9.218;2023-04-24T00:46:21;-23496.06;;;10.37;100.00
29385;BME280;16367;48.736;9.218;2023-04-24T00:48:24;-23499.25;;;10.47;100.00
29385;BME280;16367;48.736;9.218;2023-04-24T00:50:28;-23500.19;;;10.50;100.00
29385;BME280;16367;48.736;9.218;2023-04-24T00:52:31;-23500.50;;;10.51;100.00
29385;BME280;16367;48.736;9.218;2023-04-24T00:54:34;-23500.50;;;10.51;100.00
29385;BME280;16367;48.736;9.218;2023-04-24T00:56:37;-23500.66;;;10.52;100.00
29385;BME280;16367;48.736;9.218;2023-04-24T00:58:41;-23501.47;;;10.54;100.00
29385;BME280;16367;48.736;9.218;2023-04-24T01:00:44;-23500.19;;;10.50;100.00
29385;BME280;16367;48.736;9.218;2023-04-24T01:02:48;-23499.06;;;10.46;100.00
29385;BME280;16367;48.736;9.218;2023-04-24T01:04:53;-23497.03;;;10.40;100.00
29385;BME280;16367;48.736;9.218;2023-04-24T01:06:56;-23496.38;;;10.38;100.00
29385;BME280;16367;48.736;9.218;2023-04-24T01:08:59;-23497.34;;;10.41;100.00
29385;BME280;16367;48.736;9.218;2023-04-24T01:11:04;-23495.91;;;10.36;100.00
29385;BME280;16367;48.736;9.218;2023-04-24T01:13:07;-23496.22;;;10.37;100.00
29385;BME280;16367;48.736;9.218;2023-04-24T01:15:11;-23497.19;;;10.40;100.00
29385;BME280;16367;48.736;9.218;2023-04-24T01:17:14;-23498.28;;;10.44;100.00
29385;BME280;16367;48.736;9.218;2023-04-24T01:19:18;-23497.97;;;10.43;100.00
29385;BME280;16367;48.736;9.218;2023-04-24T01:21:21;-23500.03;;;10.49;100.00
29385;BME280;16367;48.736;9.218;2023-04-24T01:23:27;-23502.41;;;10.57;100.00
29385;BME280;16367;48.736;9.218;2023-04-24T01:25:30;-23499.56;;;10.48;100.00
29385;BME280;16367;48.736;9.218;2023-04-24T01:27:33;-23500.81;;;10.52;100.00
29385;BME280;16367;48.736;9.218;2023-04-24T01:29:36;-23502.09;;;10.56;100.00
29385;BME280;16367;48.736;9.218;2023-04-24T01:31:39;-23502.09;;;10.56;100.00
29385;BME280;16367;48.736;9.218;2023-04-24T01:33:42;-23502.41;;;10.57;100.00
29385;BME280;16367;48.736;9.218;2023-04-24T01:35:45;-23499.72;;;10.48;100.00
29385;BME280;16367;48.736;9.218;2023-04-24T01:37:48;-23497.50;;;10.41;100.00
29385;BME280;16367;48.736;9.218;2023-04-24T01:39:52;-23500.50;;;10.51;100.00
29385;BME280;16367;48.736;9.218;2023-04-24T01:41:55;-23498.94;;;10.46;100.00
29385;BME280;16367;48.736;9.218;2023-04-24T01:43:58;-23497.03;;;10.40;100.00
29385;BME280;16367;48.736;9.218;2023-04-24T01:46:01;-23496.06;;;10.37;100.00
29385;BME280;16367;48.736;9.218;2023-04-24T01:48:04;-23497.19;;;10.40;100.00
29385;BME280;16367;48.736;9.218;2023-04-24T01:50:08;-23494.97;;;10.33;100.00
29385;BME280;16367;48.736;9.218;2023-04-24T01:52:11;-23494.81;;;10.33;100.00
29385;BME280;16367;48.736;9.218;2023-04-24T01:54:14;-23494.16;;;10.31;100.00
29385;BME280;16367;48.736;9.218;2023-04-24T01:56:18;-23490.03;;;10.18;100.00
29385;BME280;16367;48.736;9.218;2023-04-24T01:58:22;-23487.50;;;10.10;100.00
29385;BME280;16367;48.736;9.218;2023-04-24T02:00:25;-23490.03;;;10.18;100.00
29385;BME280;16367;48.736;9.218;2023-04-24T02:02:28;-23485.91;;;10.05;100.00
29385;BME280;16367;48.736;9.218;2023-04-24T02:04:31;-23485.59;;;10.04;100.00
29385;BME280;16367;48.736;9.218;2023-04-24T02:06:34;-23487.19;;;10.09;100.00
29385;BME280;16367;48.736;9.218;2023-04-24T02:08:37;-23487.34;;;10.09;100.00
29385;BME280;16367;48.736;9.218;2023-04-24T02:10:39;-23488.47;;;10.13;100.00
29385;BME280;16367;48.736;9.218;2023-04-24T02:12:44;-23489.41;;;10.16;100.00
29385;BME280;16367;48.736;9.218;2023-04-24T02:14:46;-23488.47;;;10.13;100.00
29385;BME280;16367;48.736;9.218;2023-04-24T02:16:49;-23488.78;;;10.14;100.00
29385;BME280;16367;48.736;9.218;2023-04-24T02:18:52;-23485.28;;;10.03;100.00
29385;BME280;16367;48.736;9.218;2023-04-24T02:20:54;-23486.25;;;10.06;100.00
29385;BME280;16367;48.736;9.218;2023-04-24T02:22:57;-23484.19;;;9.99;100.00
29385;BME280;16367;48.736;9.218;2023-04-24T02:25:00;-23485.59;;;10.04;100.00
29385;BME280;16367;48.736;9.218;2023-04-24T02:27:03;-23482.13;;;9.93;100.00
29385;BME280;16367;48.736;9.218;2023-04-24T02:29:07;-23481.16;;;9.90;100.00
29385;BME280;16367;48.736;9.218;2023-04-24T02:31:10;-23479.59;;;9.85;100.00
29385;BME280;16367;48.736;9.218;2023-04-24T02:33:13;-23480.22;;;9.87;100.00
29385;BME280;16367;48.736;9.218;2023-04-24T02:35:16;-23481.47;;;9.91;100.00
29385;BME280;16367;48.736;9.218;2023-04-24T02:37:18;-23480.69;;;9.88;100.00
29385;BME280;16367;48.736;9.218;2023-04-24T02:39:21;-23481.16;;;9.90;100.00
29385;BME280;16367;48.736;9.218;2023-04-24T02:41:24;-23482.91;;;9.95;100.00
29385;BME280;16367;48.736;9.218;2023-04-24T02:43:32;-23482.13;;;9.93;100.00
29385;BME280;16367;48.736;9.218;2023-04-24T02:45:36;-23483.06;;;9.96;100.00
29385;BME280;16367;48.736;9.218;2023-04-24T02:47:40;-23486.25;;;10.06;100.00
29385;BME280;16367;48.736;9.218;2023-04-24T02:49:42;-23486.88;;;10.08;100.00
29385;BME280;16367;48.736;9.218;2023-04-24T02:51:45;-23484.66;;;10.01;100.00
29385;BME280;16367;48.736;9.218;2023-04-24T02:53:48;-23486.09;;;10.05;100.00
29385;BME280;16367;48.736;9.218;2023-04-24T02:55:51;-23486.56;;;10.07;100.00
29385;BME280;16367;48.736;9.218;2023-04-24T02:57:53;-23490.03;;;10.18;100.00
29385;BME280;16367;48.736;9.218;2023-04-24T02:59:56;-23487.50;;;10.10;100.00
29385;BME280;16367;48.736;9.218;2023-04-24T03:02:00;-23486.72;;;10.07;100.00
29385;BME280;16367;48.736;9.218;2023-04-24T03:04:03;-23485.75;;;10.04;100.00
29385;BME280;16367;48.736;9.218;2023-04-24T03:06:06;-23484.03;;;9.99;100.00
29385;BME280;16367;48.736;9.218;2023-04-24T03:08:09;-23484.03;;;9.99;100.00
29385;BME280;16367;48.736;9.218;2023-04-24T03:10:12;-23482.91;;;9.95;100.00
29385;BME280;16367;48.736;9.218;2023-04-24T03:12:15;-23481.47;;;9.91;100.00
29385;BME280;16367;48.736;9.218;2023-04-24T03:14:19;-23487.19;;;10.09;100.00
29385;BME280;16367;48.736;9.218;2023-04-24T03:16:21;-23476.72;;;9.75;100.00
29385;BME280;16367;48.736;9.218;2023-04-24T03:18:26;-23475.47;;;9.71;100.00
29385;BME280;16367;48.736;9.218;2023-04-24T03:20:28;-23472.91;;;9.63;100.00
29385;BME280;16367;48.736;9.218;2023-04-24T03:22:31;-23472.59;;;9.62;100.00
29385;BME280;16367;48.736;9.218;2023-04-24T03:24:35;-23472.28;;;9.61;100.00
29385;BME280;16367;48.736;9.218;2023-04-24T03:26:37;-23471.97;;;9.60;100.00
29385;BME280;16367;48.736;9.218;2023-04-24T03:28:40;-23469.75;;;9.53;100.00
29385;BME280;16367;48.736;9.218;2023-04-24T03:30:43;-23469.13;;;9.51;100.00
29385;BME280;16367;48.736;9.218;2023-04-24T03:32:46;-23468.31;;;9.49;100.00
29385;BME280;16367;48.736;9.218;2023-04-24T03:34:50;-23467.06;;;9.45;100.00
29385;BME280;16367;48.736;9.218;2023-04-24T03:36:52;-23466.44;;;9.43;100.00
29385;BME280;16367;48.736;9.218;2023-04-24T03:38:55;-23466.91;;;9.44;100.00
29385;BME280;16367;48.736;9.218;2023-04-24T03:40:58;-23466.91;;;9.44;100.00
29385;BME280;16367;48.736;9.218;2023-04-24T03:43:00;-23465.31;;;9.39;100.00
29385;BME280;16367;48.736;9.218;2023-04-24T03:45:04;-23465.94;;;9.41;100.00
29385;BME280;16367;48.736;9.218;2023-04-24T03:47:07;-23465.94;;;9.41;100.00
29385;BME280;16367;48.736;9.218;2023-04-24T03:49:09;-23466.25;;;9.42;100.00
29385;BME280;16367;48.736;9.218;2023-04-24T03:51:13;-23464.19;;;9.36;100.00
29385;BME280;16367;48.736;9.218;2023-04-24T03:53:16;-23465.47;;;9.40;100.00
29385;BME280;16367;48.736;9.218;2023-04-24T03:55:19;-23463.41;;;9.33;100.00
29385;BME280;16367;48.736;9.218;2023-04-24T03:57:21;-23463.88;;;9.35;100.00
29385;BME280;16367;48.736;9.218;2023-04-24T03:59:24;-23462.78;;;9.31;100.00
29385;BME280;16367;48.736;9.218;2023-04-24T04:01:27;-23461.50;;;9.27;100.00
29385;BME280;16367;48.736;9.218;2023-04-24T04:03:29;-23460.25;;;9.23;100.00
29385;BME280;16367;48.736;9.218;2023-04-24T04:05:32;-23459.91;;;9.22;100.00
29385;BME280;16367;48.736;9.218;2023-04-24T04:07:36;-23460.25;;;9.23;100.00
29385;BME280;16367;48.736;9.218;2023-04-24T04:09:39;-23460.25;;;9.23;100.00
29385;BME280;16367;48.736;9.218;2023-04-24T04:11:42;-23461.19;;;9.26;100.00
29385;BME280;16367;48.736;9.218;2023-04-24T04:13:45;-23461.19;;;9.26;100.00
29385;BME280;16367;48.736;9.218;2023-04-24T04:15:49;-23462.13;;;9.29;100.00
29385;BME280;16367;48.736;9.218;2023-04-24T04:17:52;-23463.41;;;9.33;100.00
29385;BME280;16367;48.736;9.218;2023-04-24T04:19:54;-23465.63;;;9.40;100.00
29385;BME280;16367;48.736;9.218;2023-04-24T04:21:57;-23465.63;;;9.40;100.00
29385;BME280;16367;48.736;9.218;2023-04-24T04:24:01;-23466.75;;;9.44;100.00
29385;BME280;16367;48.736;9.218;2023-04-24T04:26:06;-23469.13;;;9.51;100.00
29385;BME280;16367;48.736;9.218;2023-04-24T04:28:10;-23468.31;;;9.49;100.00
29385;BME280;16367;48.736;9.218;2023-04-24T04:30:13;-23468.81;;;9.50;100.00
29385;BME280;16367;48.736;9.218;2023-04-24T04:32:16;-23471.03;;;9.57;100.00
29385;BME280;16367;48.736;9.218;2023-04-24T04:34:19;-23468.50;;;9.49;100.00
29385;BME280;16367;48.736;9.218;2023-04-24T04:36:25;-23468.00;;;9.48;100.00
29385;BME280;16367;48.736;9.218;2023-04-24T04:38:28;-23466.25;;;9.42;100.00
29385;BME280;16367;48.736;9.218;2023-04-24T04:40:33;-23465.94;;;9.41;100.00
29385;BME280;16367;48.736;9.218;2023-04-24T04:42:36;-23455.00;;;9.07;100.00
29385;BME280;16367;48.736;9.218;2023-04-24T04:44:41;-23451.84;;;8.96;100.00
29385;BME280;16367;48.736;9.218;2023-04-24T04:46:46;-23445.66;;;8.77;100.00
29385;BME280;16367;48.736;9.218;2023-04-24T04:48:49;-23442.78;;;8.68;100.00
29385;BME280;16367;48.736;9.218;2023-04-24T04:50:51;-23440.25;;;8.60;100.00
29385;BME280;16367;48.736;9.218;2023-04-24T04:52:54;-23443.91;;;8.71;100.00
29385;BME280;16367;48.736;9.218;2023-04-24T04:54:57;-23441.53;;;8.64;100.00
29385;BME280;16367;48.736;9.218;2023-04-24T04:57:01;-23439.28;;;8.57;100.00
29385;BME280;16367;48.736;9.218;2023-04-24T04:59:04;-23441.53;;;8.64;100.00
29385;BME280;16367;48.736;9.218;2023-04-24T05:01:07;-23438.19;;;8.53;100.00
29385;BME280;16367;48.736;9.218;2023-04-24T05:03:10;-23438.66;;;8.55;100.00
29385;BME280;16367;48.736;9.218;2023-04-24T05:05:21;-23434.84;;;8.43;100.00
29385;BME280;16367;48.736;9.218;2023-04-24T05:07:24;-23432.31;;;8.35;100.00
29385;BME280;16367;48.736;9.218;2023-04-24T05:09:27;-23438.97;;;8.56;100.00
29385;BME280;16367;48.736;9.218;2023-04-24T05:11:30;-23434.06;;;8.40;100.00
29385;BME280;16367;48.736;9.218;2023-04-24T05:13:34;-23432.94;;;8.37;100.00
29385;BME280;16367;48.736;9.218;2023-04-24T05:15:41;-23435.16;;;8.44;100.00
29385;BME280;16367;48.736;9.218;2023-04-24T05:17:44;-23440.25;;;8.60;100.00
29385;BME280;16367;48.736;9.218;2023-04-24T05:19:47;-23442.31;;;8.66;100.00
29385;BME280;16367;48.736;9.218;2023-04-24T05:21:49;-23439.59;;;8.58;100.00
29385;BME280;16367;48.736;9.218;2023-04-24T05:23:52;-23438.19;;;8.53;100.00
29385;BME280;16367;48.736;9.218;2023-04-24T05:25:55;-23442.47;;;8.67;100.00
29385;BME280;16367;48.736;9.218;2023-04-24T05:27:57;-23438.66;;;8.55;100.00
29385;BME280;16367;48.736;9.218;2023-04-24T05:30:02;-23437.72;;;8.52;100.00
29385;BME280;16367;48.736;9.218;2023-04-24T05:32:06;-23438.19;;;8.53;100.00
29385;BME280;16367;48.736;9.218;2023-04-24T05:34:08;-23443.41;;;8.70;100.00
29385;BME280;16367;48.736;9.218;2023-04-24T05:36:11;-23446.91;;;8.81;100.00
29385;BME280;16367;48.736;9.218;2023-04-24T05:38:14;-23441.19;;;8.63;100.00
29385;BME280;16367;48.736;9.218;2023-04-24T05:40:19;-23438.66;;;8.55;100.00
29385;BME280;16367;48.736;9.218;2023-04-24T05:42:22;-23441.19;;;8.63;100.00
29385;BME280;16367;48.736;9.218;2023-04-24T05:44:24;-23443.75;;;8.71;100.00
29385;BME280;16367;48.736;9.218;2023-04-24T05:46:28;-23448.50;;;8.86;100.00
29385;BME280;16367;48.736;9.218;2023-04-24T05:48:31;-23443.41;;;8.70;100.00
29385;BME280;16367;48.736;9.218;2023-04-24T05:50:34;-23444.53;;;8.73;100.00
29385;BME280;16367;48.736;9.218;2023-04-24T05:52:37;-23445.66;;;8.77;100.00
29385;BME280;16367;48.736;9.218;2023-04-24T05:54:40;-23447.38;;;8.82;100.00
29385;BME280;16367;48.736;9.218;2023-04-24T05:56:43;-23445.66;;;8.77;100.00
29385;BME280;16367;48.736;9.218;2023-04-24T05:58:46;-23439.78;;;8.58;100.00
29385;BME280;16367;48.736;9.218;2023-04-24T06:00:49;-23441.34;;;8.63;100.00
29385;BME280;16367;48.736;9.218;2023-04-24T06:02:53;-23440.09;;;8.59;100.00
29385;BME280;16367;48.736;9.218;2023-04-24T06:04:56;-23448.03;;;8.84;100.00
29385;BME280;16367;48.736;9.218;2023-04-24T06:07:00;-23442.31;;;8.66;100.00
29385;BME280;16367;48.736;9.218;2023-04-24T06:09:04;-23447.53;;;8.83;100.00
29385;BME280;16367;48.736;9.218;2023-04-24T06:11:06;-23446.44;;;8.79;100.00
29385;BME280;16367;48.736;9.218;2023-04-24T06:13:09;-23444.69;;;8.74;100.00
29385;BME280;16367;48.736;9.218;2023-04-24T06:15:12;-23452.00;;;8.97;100.00
29385;BME280;16367;48.736;9.218;2023-04-24T06:17:15;-23455.16;;;9.07;100.00
29385;BME280;16367;48.736;9.218;2023-04-24T06:19:19;-23459.91;;;9.22;100.00
29385;BME280;16367;48.736;9.218;2023-04-24T06:21:22;-23457.69;;;9.15;100.00
29385;BME280;16367;48.736;9.218;2023-04-24T06:23:25;-23461.66;;;9.28;100.00
29385;BME280;16367;48.736;9.218;2023-04-24T06:25:28;-23487.84;;;10.11;100.00
29385;BME280;16367;48.736;9.218;2023-04-24T06:27:30;-23487.19;;;10.09;100.00
29385;BME280;16367;48.736;9.218;2023-04-24T06:29:33;-23480.53;;;9.88;100.00
29385;BME280;16367;48.736;9.218;2023-04-24T06:31:36;-23493.53;;;10.29;100.00
29385;BME280;16367;48.736;9.218;2023-04-24T06:33:39;-23487.50;;;10.10;100.00
29385;BME280;16367;48.736;9.218;2023-04-24T06:35:43;-23497.66;;;10.42;100.00
29385;BME280;16367;48.736;9.218;2023-04-24T06:37:46;-23497.81;;;10.42;100.00
29385;BME280;16367;48.736;9.218;2023-04-24T06:39:49;-23505.25;;;10.66;100.00
29385;BME280;16367;48.736;9.218;2023-04-24T06:41:51;-23502.41;;;10.57;100.00
29385;BME280;16367;48.736;9.218;2023-04-24T06:43:54;-23500.97;;;10.53;100.00
29385;BME280;16367;48.736;9.218;2023-04-24T06:45:57;-23498.28;;;10.44;100.00
29385;BME280;16367;48.736;9.218;2023-04-24T06:48:00;-23512.22;;;10.88;100.00
29385;BME280;16367;48.736;9.218;2023-04-24T06:50:03;-23523.31;;;11.23;100.00
29385;BME280;16367;48.736;9.218;2023-04-24T06:52:07;-23525.69;;;11.31;100.00
29385;BME280;16367;48.736;9.218;2023-04-24T06:54:10;-23524.09;;;11.26;100.00
29385;BME280;16367;48.736;9.218;2023-04-24T06:56:13;-23522.38;;;11.20;100.00
29385;BME280;16367;48.736;9.218;2023-04-24T06:58:16;-23529.34;;;11.43;97.82
29385;BME280;16367;48.736;9.218;2023-04-24T07:00:19;-23514.75;;;10.96;94.55
29385;BME280;16367;48.736;9.218;2023-04-24T07:02:22;-23518.88;;;11.09;96.81
29385;BME280;16367;48.736;9.218;2023-04-24T07:04:25;-23510.50;;;10.83;98.78
29385;BME280;16367;48.736;9.218;2023-04-24T07:06:28;-23528.06;;;11.39;95.98
29385;BME280;16367;48.736;9.218;2023-04-24T07:08:33;-23524.09;;;11.26;96.38
29385;BME280;16367;48.736;9.218;2023-04-24T07:10:37;-23530.13;;;11.45;95.12
29385;BME280;16367;48.736;9.218;2023-04-24T07:12:40;-23516.19;;;11.01;96.48
29385;BME280;16367;48.736;9.218;2023-04-24T07:14:42;-23525.22;;;11.30;94.72
29385;BME280;16367;48.736;9.218;2023-04-24T07:16:45;-23540.56;;;11.78;95.28
29385;BME280;16367;48.736;9.218;2023-04-24T07:18:48;-23518.25;;;11.07;95.03
29385;BME280;16367;48.736;9.218;2023-04-24T07:20:51;-23516.03;;;11.00;98.08
29385;BME280;16367;48.736;9.218;2023-04-24T07:22:54;-23514.44;;;10.95;100.00
29385;BME280;16367;48.736;9.218;2023-04-24T07:24:58;-23501.28;;;10.54;100.00
29385;BME280;16367;48.736;9.218;2023-04-24T07:27:00;-23499.06;;;10.46;100.00
29385;BME280;16367;48.736;9.218;2023-04-24T07:29:03;-23494.31;;;10.31;100.00
29385;BME280;16367;48.736;9.218;2023-04-24T07:31:06;-23484.97;;;10.02;100.00
29385;BME280;16367;48.736;9.218;2023-04-24T07:33:09;-23483.06;;;9.96;100.00
29385;BME280;16367;48.736;9.218;2023-04-24T07:35:14;-23482.91;;;9.95;100.00
29385;BME280;16367;48.736;9.218;2023-04-24T07:37:17;-23495.44;;;10.35;100.00
29385;BME280;16367;48.736;9.218;2023-04-24T07:39:20;-23500.19;;;10.50;100.00
29385;BME280;16367;48.736;9.218;2023-04-24T07:41:24;-23493.22;;;10.28;99.58
29385;BME280;16367;48.736;9.218;2023-04-24T07:43:26;-23512.06;;;10.88;90.80
29385;BME280;16367;48.736;9.218;2023-04-24T07:45:29;-23544.22;;;11.90;88.82
29385;BME280;16367;48.736;9.218;2023-04-24T07:47:32;-23570.16;;;12.72;84.58
29385;BME280;16367;48.736;9.218;2023-04-24T07:49:35;-23577.91;;;12.97;80.42
29385;BME280;16367;48.736;9.218;2023-04-24T07:51:39;-23557.34;;;12.32;79.07
29385;BME280;16367;48.736;9.218;2023-04-24T07:53:43;-23565.88;;;12.59;78.21
29385;BME280;16367;48.736;9.218;2023-04-24T07:55:46;-23551.97;;;12.15;77.53
29385;BME280;16367;48.736;9.218;2023-04-24T07:57:50;-23527.44;;;11.37;78.53
29385;BME280;16367;48.736;9.218;2023-04-24T07:59:53;-23539.16;;;11.74;82.21
29385;BME280;16367;48.736;9.218;2023-04-24T08:01:56;-23530.28;;;11.46;83.77
29385;BME280;16367;48.736;9.218;2023-04-24T08:03:59;-23536.59;;;11.66;82.51
29385;BME280;16367;48.736;9.218;2023-04-24T08:06:02;-23529.97;;;11.45;78.96
29385;BME280;16367;48.736;9.218;2023-04-24T08:08:05;-23523.63;;;11.24;77.81
29385;BME280;16367;48.736;9.218;2023-04-24T08:10:09;-23519.81;;;11.12;78.02
29385;BME280;16367;48.736;9.218;2023-04-24T08:12:12;-23525.53;;;11.31;78.48
29385;BME280;16367;48.736;9.218;2023-04-24T08:14:16;-23519.50;;;11.11;78.83
29385;BME280;16367;48.736;9.218;2023-04-24T08:16:19;-23506.53;;;10.70;76.99
29385;BME280;16367;48.736;9.218;2023-04-24T08:18:22;-23511.91;;;10.87;75.40
29385;BME280;16367;48.736;9.218;2023-04-24T08:20:25;-23502.56;;;10.58;75.18
29385;BME280;16367;48.736;9.218;2023-04-24T08:22:27;-23517.63;;;11.05;76.36
29385;BME280;16367;48.736;9.218;2023-04-24T08:24:30;-23528.84;;;11.41;76.28
29385;BME280;16367;48.736;9.218;2023-04-24T08:26:33;-23534.06;;;11.58;74.79
29385;BME280;16367;48.736;9.218;2023-04-24T08:28:36;-23523.31;;;11.23;73.88
29385;BME280;16367;48.736;9.218;2023-04-24T08:30:40;-23518.25;;;11.07;72.60
29385;BME280;16367;48.736;9.218;2023-04-24T08:32:43;-23542.00;;;11.83;69.97
29385;BME280;16367;48.736;9.218;2023-04-24T08:34:46;-23549.75;;;12.08;68.54
29385;BME280;16367;48.736;9.218;2023-04-24T08:36:50;-23542.00;;;11.83;66.71
29385;BME280;16367;48.736;9.218;2023-04-24T08:38:53;-23571.09;;;12.76;64.72
29385;BME280;16367;48.736;9.218;2023-04-24T08:40:57;-23566.34;;;12.60;65.47
29385;BME280;16367;48.736;9.218;2023-04-24T08:43:00;-23570.47;;;12.73;67.09
29385;BME280;16367;48.736;9.218;2023-04-24T08:45:04;-23570.47;;;12.73;63.83
29385;BME280;16367;48.736;9.218;2023-04-24T08:47:09;-23595.75;;;13.54;62.63
29385;BME280;16367;48.736;9.218;2023-04-24T08:49:15;-23602.69;;;13.76;60.33
29385;BME280;16367;48.736;9.218;2023-04-24T08:51:19;-23556.53;;;12.29;64.30
29385;BME280;16367;48.736;9.218;2023-04-24T08:53:24;-23567.63;;;12.64;63.67
29385;BME280;16367;48.736;9.218;2023-04-24T08:55:29;-23566.50;;;12.61;63.86
29385;BME280;16367;48.736;9.218;2023-04-24T08:57:32;-23581.53;;;13.09;61.24
29385;BME280;16367;48.736;9.218;2023-04-24T08:59:37;-23558.91;;;12.37;61.57
29385;BME280;16367;48.736;9.218;2023-04-24T09:01:41;-23546.44;;;11.97;64.09
29385;BME280;16367;48.736;9.218;2023-04-24T09:03:46;-23546.91;;;11.98;66.25
29385;BME280;16367;48.736;9.218;2023-04-24T09:05:50;-23556.38;;;12.29;64.53
29385;BME280;16367;48.736;9.218;2023-04-24T09:07:56;-23614.06;;;14.12;61.78
29385;BME280;16367;48.736;9.218;2023-04-24T09:09:59;-23601.44;;;13.72;61.19
29385;BME280;16367;48.736;9.218;2023-04-24T09:12:03;-23595.75;;;13.54;60.63
29385;BME280;16367;48.736;9.218;2023-04-24T09:14:06;-23604.28;;;13.81;60.44
29385;BME280;16367;48.736;9.218;2023-04-24T09:16:09;-23632.56;;;14.71;59.45
29385;BME280;16367;48.736;9.218;2023-04-24T09:18:12;-23594.66;;;13.51;60.29
29385;BME280;16367;48.736;9.218;2023-04-24T09:20:16;-23586.28;;;13.24;61.72
29385;BME280;16367;48.736;9.218;2023-04-24T09:22:20;-23536.28;;;11.65;65.47
29385;BME280;16367;48.736;9.218;2023-04-24T09:24:22;-23537.88;;;11.70;65.53
29385;BME280;16367;48.736;9.218;2023-04-24T09:26:25;-23524.41;;;11.27;66.17
29385;BME280;16367;48.736;9.218;2023-04-24T09:28:32;-23535.81;;;11.63;67.20
29385;BME280;16367;48.736;9.218;2023-04-24T09:30:34;-23541.34;;;11.81;68.39
29385;BME280;16367;48.736;9.218;2023-04-24T09:32:37;-23522.03;;;11.19;68.58
29385;BME280;16367;48.736;9.218;2023-04-24T09:34:40;-23522.69;;;11.21;67.61
29385;BME280;16367;48.736;9.218;2023-04-24T09:36:46;-23528.69;;;11.41;68.45
29385;BME280;16367;48.736;9.218;2023-04-24T09:38:55;-23534.56;;;11.59;65.40
29385;BME280;16367;48.736;9.218;2023-04-24T09:41:01;-23591.97;;;13.42;59.63
29385;BME280;16367;48.736;9.218;2023-04-24T09:43:10;-23619.91;;;14.31;56.30
29385;BME280;16367;48.736;9.218;2023-04-24T09:45:13;-23633.97;;;14.76;53.05
29385;BME280;16367;48.736;9.218;2023-04-24T09:47:16;-23624.50;;;14.46;52.55
29385;BME280;16367;48.736;9.218;2023-04-24T09:49:22;-23629.72;;;14.62;50.82
29385;BME280;16367;48.736;9.218;2023-04-24T09:51:35;-23598.91;;;13.64;51.88
29385;BME280;16367;48.736;9.218;2023-04-24T09:53:45;-23597.81;;;13.61;53.30
29385;BME280;16367;48.736;9.218;2023-04-24T09:55:48;-23557.81;;;12.33;56.59
29385;BME280;16367;48.736;9.218;2023-04-24T09:57:54;-23572.69;;;12.81;56.03
29385;BME280;16367;48.736;9.218;2023-04-24T09:59:57;-23566.34;;;12.60;55.77
29385;BME280;16367;48.736;9.218;2023-04-24T10:02:00;-23559.88;;;12.40;57.86
29385;BME280;16367;48.736;9.218;2023-04-24T10:04:03;-23549.44;;;12.07;58.96
29385;BME280;16367;48.736;9.218;2023-04-24T10:06:06;-23551.47;;;12.13;59.69
29385;BME280;16367;48.736;9.218;2023-04-24T10:08:11;-23548.31;;;12.03;60.52
29385;BME280;16367;48.736;9.218;2023-04-24T10:10:16;-23547.69;;;12.01;60.89
29385;BME280;16367;48.736;9.218;2023-04-24T10:12:19;-23539.63;;;11.75;60.39
29385;BME280;16367;48.736;9.218;2023-04-24T10:14:23;-23544.22;;;11.90;58.75
29385;BME280;16367;48.736;9.218;2023-04-24T10:16:26;-23561.13;;;12.44;58.67
29385;BME280;16367;48.736;9.218;2023-04-24T10:18:30;-23591.34;;;13.40;55.51
29385;BME280;16367;48.736;9.218;2023-04-24T10:20:35;-23617.22;;;14.23;51.99
29385;BME280;16367;48.736;9.218;2023-04-24T10:22:38;-23601.75;;;13.73;52.97
29385;BME280;16367;48.736;9.218;2023-04-24T10:24:42;-23627.97;;;14.57;52.35
29385;BME280;16367;48.736;9.218;2023-04-24T10:26:47;-23612.50;;;14.07;53.37
29385;BME280;16367;48.736;9.218;2023-04-24T10:28:50;-23579.00;;;13.01;53.16
29385;BME280;16367;48.736;9.218;2023-04-24T10:30:54;-23592.28;;;13.43;52.16
29385;BME280;16367;48.736;9.218;2023-04-24T10:32:57;-23598.44;;;13.63;52.46
29385;BME280;16367;48.736;9.218;2023-04-24T10:35:00;-23595.28;;;13.53;53.62
29385;BME280;16367;48.736;9.218;2023-04-24T10:37:03;-23592.91;;;13.45;53.16
29385;BME280;16367;48.736;9.218;2023-04-24T10:39:08;-23600.81;;;13.70;54.77
29385;BME280;16367;48.736;9.218;2023-04-24T10:41:13;-23603.34;;;13.78;54.05
29385;BME280;16367;48.736;9.218;2023-04-24T10:43:19;-23589.91;;;13.35;54.54